sensor_id;sensor_type;location;lat;lon;timestamp;temperature;humidity
39931;DHT22;26635;-35.248;149.138;2023-05-02T00:01:24;12.50;91.40
39931;DHT22;26635;-35.248;149.138;2023-05-02T00:03:56;12.60;91.40
39931;DHT22;26635;-35.248;149.138;2023-05-02T00:06:28;12.50;91.50
39931;DHT22;26635;-35.248;149.138;2023-05-02T00:09:00;12.50;91.80
39931;DHT22;26635;-35.248;149.138;2023-05-02T00:11:31;12.50;91.60
39931;DHT22;26635;-35.248;149.138;2023-05-02T00:14:03;12.50;91.60
39931;DHT22;26635;-35.248;149.138;2023-05-02T00:16:33;12.40;91.70
39931;DHT22;26635;-35.248;149.138;2023-05-02T00:19:05;12.40;92.00
39931;DHT22;26635;-35.248;149.138;2023-05-02T00:21:36;12.30;91.90
39931;DHT22;26635;-35.248;149.138;2023-05-02T00:24:07;12.30;92.00
39931;DHT22;26635;-35.248;149.138;2023-05-02T00:26:37;12.30;92.30
39931;DHT22;26635;-35.248;149.138;2023-05-02T00:29:08;12.30;92.30
39931;DHT22;26635;-35.248;149.138;2023-05-02T00:31:42;12.20;92.40
39931;DHT22;26635;-35.248;149.138;2023-05-02T00:34:13;12.20;92.70
39931;DHT22;26635;-35.248;149.138;2023-05-02T00:36:44;12.20;92.50
39931;DHT22;26635;-35.248;149.138;2023-05-02T00:39:15;12.20;92.70
39931;DHT22;26635;-35.248;149.138;2023-05-02T00:41:46;12.30;92.70
39931;DHT22;26635;-35.248;149.138;2023-05-02T00:44:18;12.30;92.20
39931;DHT22;26635;-35.248;149.138;2023-05-02T00:46:49;12.30;92.20
39931;DHT22;26635;-35.248;149.138;2023-05-02T00:49:20;12.40;92.60
39931;DHT22;26635;-35.248;149.138;2023-05-02T00:51:53;12.40;92.30
39931;DHT22;26635;-35.248;149.138;2023-05-02T00:54:23;12.50;92.50
39931;DHT22;26635;-35.248;149.138;2023-05-02T00:56:55;12.60;92.30
39931;DHT22;26635;-35.248;149.138;2023-05-02T00:59:27;12.70;92.60
39931;DHT22;26635;-35.248;149.138;2023-05-02T01:02:10;12.80;91.70
39931;DHT22;26635;-35.248;149.138;2023-05-02T01:11:42;13.50;91.90
39931;DHT22;26635;-35.248;149.138;2023-05-02T01:13:53;13.90;91.20
39931;DHT22;26635;-35.248;149.138;2023-05-02T01:16:25;14.30;90.70
39931;DHT22;26635;-35.248;149.138;2023-05-02T01:18:57;14.70;90.00
39931;DHT22;26635;-35.248;149.138;2023-05-02T01:21:30;14.80;87.20
39931;DHT22;26635;-35.248;149.138;2023-05-02T01:24:29;14.90;87.20
39931;DHT22;26635;-35.248;149.138;2023-05-02T01:27:17;14.80;86.50
39931;DHT22;26635;-35.248;149.138;2023-05-02T01:29:52;14.70;87.00
39931;DHT22;26635;-35.248;149.138;2023-05-02T01:32:24;14.60;87.10
39931;DHT22;26635;-35.248;149.138;2023-05-02T01:35:00;14.50;86.60
39931;DHT22;26635;-35.248;149.138;2023-05-02T01:37:32;14.40;88.10
39931;DHT22;26635;-35.248;149.138;2023-05-02T01:40:04;14.30;87.70
39931;DHT22;26635;-35.248;149.138;2023-05-02T01:42:39;14.20;88.50
39931;DHT22;26635;-35.248;149.138;2023-05-02T01:45:12;14.30;89.10
39931;DHT22;26635;-35.248;149.138;2023-05-02T01:47:44;14.30;89.50
39931;DHT22;26635;-35.248;149.138;2023-05-02T01:50:18;14.40;88.20
39931;DHT22;26635;-35.248;149.138;2023-05-02T01:52:53;14.40;88.50
39931;DHT22;26635;-35.248;149.138;2023-05-02T01:56:04;14.40;88.90
39931;DHT22;26635;-35.248;149.138;2023-05-02T01:58:36;14.40;88.40
39931;DHT22;26635;-35.248;149.138;2023-05-02T02:01:09;14.40;88.40
39931;DHT22;26635;-35.248;149.138;2023-05-02T02:03:41;14.50;89.40
39931;DHT22;26635;-35.248;149.138;2023-05-02T02:06:32;14.60;88.70
39931;DHT22;26635;-35.248;149.138;2023-05-02T02:09:03;14.70;89.60
39931;DHT22;26635;-35.248;149.138;2023-05-02T02:11:42;14.70;89.00
39931;DHT22;26635;-35.248;149.138;2023-05-02T02:14:20;14.70;88.00
39931;DHT22;26635;-35.248;149.138;2023-05-02T02:16:56;14.80;87.60
39931;DHT22;26635;-35.248;149.138;2023-05-02T02:19:30;14.90;88.70
39931;DHT22;26635;-35.248;149.138;2023-05-02T02:22:02;15.00;88.40
39931;DHT22;26635;-35.248;149.138;2023-05-02T02:24:37;15.00;87.10
39931;DHT22;26635;-35.248;149.138;2023-05-02T02:27:08;15.00;86.90
39931;DHT22;26635;-35.248;149.138;2023-05-02T02:29:39;14.90;86.50
39931;DHT22;26635;-35.248;149.138;2023-05-02T02:32:10;14.80;88.40
39931;DHT22;26635;-35.248;149.138;2023-05-02T02:34:41;14.70;88.20
39931;DHT22;26635;-35.248;149.138;2023-05-02T02:37:21;14.70;88.30
39931;DHT22;26635;-35.248;149.138;2023-05-02T02:40:42;14.70;87.50
39931;DHT22;26635;-35.248;149.138;2023-05-02T02:43:02;14.80;88.00
39931;DHT22;26635;-35.248;149.138;2023-05-02T02:51:08;15.00;86.60
39931;DHT22;26635;-35.248;149.138;2023-05-02T02:57:05;14.90;86.70
39931;DHT22;26635;-35.248;149.138;2023-05-02T02:59:46;14.90;86.90
39931;DHT22;26635;-35.248;149.138;2023-05-02T03:02:24;14.90;87.70
39931;DHT22;26635;-35.248;149.138;2023-05-02T03:04:57;14.90;87.30
39931;DHT22;26635;-35.248;149.138;2023-05-02T03:07:29;15.00;87.30
39931;DHT22;26635;-35.248;149.138;2023-05-02T03:10:03;15.00;85.20
39931;DHT22;26635;-35.248;149.138;2023-05-02T03:12:35;15.00;84.10
39931;DHT22;26635;-35.248;149.138;2023-05-02T03:17:55;14.90;82.40
39931;DHT22;26635;-35.248;149.138;2023-05-02T03:20:26;14.90;82.50
39931;DHT22;26635;-35.248;149.138;2023-05-02T03:22:57;15.00;83.50
39931;DHT22;26635;-35.248;149.138;2023-05-02T03:25:28;15.00;82.40
39931;DHT22;26635;-35.248;149.138;2023-05-02T03:28:00;15.10;82.20
39931;DHT22;26635;-35.248;149.138;2023-05-02T03:30:31;15.10;81.60
39931;DHT22;26635;-35.248;149.138;2023-05-02T03:33:02;15.10;80.80
39931;DHT22;26635;-35.248;149.138;2023-05-02T03:35:38;15.00;81.00
39931;DHT22;26635;-35.248;149.138;2023-05-02T03:38:09;15.00;81.30
39931;DHT22;26635;-35.248;149.138;2023-05-02T03:40:40;14.90;81.80
39931;DHT22;26635;-35.248;149.138;2023-05-02T03:43:11;14.80;81.50
39931;DHT22;26635;-35.248;149.138;2023-05-02T03:45:42;14.80;82.30
39931;DHT22;26635;-35.248;149.138;2023-05-02T03:48:15;14.90;82.10
39931;DHT22;26635;-35.248;149.138;2023-05-02T03:50:46;14.90;81.50
39931;DHT22;26635;-35.248;149.138;2023-05-02T03:53:17;14.80;80.60
39931;DHT22;26635;-35.248;149.138;2023-05-02T03:55:48;14.80;81.10
39931;DHT22;26635;-35.248;149.138;2023-05-02T03:58:19;14.80;80.50
39931;DHT22;26635;-35.248;149.138;2023-05-02T04:00:52;14.90;80.20
39931;DHT22;26635;-35.248;149.138;2023-05-02T04:03:23;14.90;79.30
39931;DHT22;26635;-35.248;149.138;2023-05-02T04:05:56;14.90;78.40
39931;DHT22;26635;-35.248;149.138;2023-05-02T04:08:30;15.10;79.80
39931;DHT22;26635;-35.248;149.138;2023-05-02T04:11:02;15.30;79.10
39931;DHT22;26635;-35.248;149.138;2023-05-02T04:13:33;15.50;79.00
39931;DHT22;26635;-35.248;149.138;2023-05-02T04:16:04;15.70;76.80
39931;DHT22;26635;-35.248;149.138;2023-05-02T04:18:35;15.80;74.00
39931;DHT22;26635;-35.248;149.138;2023-05-02T04:21:07;16.00;76.00
39931;DHT22;26635;-35.248;149.138;2023-05-02T04:23:41;16.10;73.30
39931;DHT22;26635;-35.248;149.138;2023-05-02T04:26:14;16.00;71.30
39931;DHT22;26635;-35.248;149.138;2023-05-02T04:28:46;16.00;71.00
39931;DHT22;26635;-35.248;149.138;2023-05-02T04:31:16;16.10;74.20
39931;DHT22;26635;-35.248;149.138;2023-05-02T04:33:47;16.10;74.10
39931;DHT22;26635;-35.248;149.138;2023-05-02T04:36:18;16.10;73.20
39931;DHT22;26635;-35.248;149.138;2023-05-02T04:38:49;16.00;72.70
39931;DHT22;26635;-35.248;149.138;2023-05-02T04:41:19;15.80;72.30
39931;DHT22;26635;-35.248;149.138;2023-05-02T04:43:52;15.70;74.20
39931;DHT22;26635;-35.248;149.138;2023-05-02T04:46:22;15.60;70.90
39931;DHT22;26635;-35.248;149.138;2023-05-02T04:48:55;15.40;72.50
39931;DHT22;26635;-35.248;149.138;2023-05-02T04:51:25;15.40;72.50
39931;DHT22;26635;-35.248;149.138;2023-05-02T04:53:58;15.30;72.10
39931;DHT22;26635;-35.248;149.138;2023-05-02T04:56:30;15.20;72.60
39931;DHT22;26635;-35.248;149.138;2023-05-02T04:59:12;15.30;71.90
39931;DHT22;26635;-35.248;149.138;2023-05-02T05:02:14;15.30;73.40
39931;DHT22;26635;-35.248;149.138;2023-05-02T05:04:45;15.30;72.70
39931;DHT22;26635;-35.248;149.138;2023-05-02T05:07:17;15.40;72.50
39931;DHT22;26635;-35.248;149.138;2023-05-02T05:09:48;15.40;71.90
39931;DHT22;26635;-35.248;149.138;2023-05-02T05:12:20;15.50;71.70
39931;DHT22;26635;-35.248;149.138;2023-05-02T05:14:51;15.50;69.60
39931;DHT22;26635;-35.248;149.138;2023-05-02T05:17:21;15.50;70.80
39931;DHT22;26635;-35.248;149.138;2023-05-02T05:19:52;15.30;68.80
39931;DHT22;26635;-35.248;149.138;2023-05-02T05:22:23;15.30;69.90
39931;DHT22;26635;-35.248;149.138;2023-05-02T05:24:54;15.30;71.50
39931;DHT22;26635;-35.248;149.138;2023-05-02T05:27:25;15.40;72.50
39931;DHT22;26635;-35.248;149.138;2023-05-02T05:29:56;15.40;70.90
39931;DHT22;26635;-35.248;149.138;2023-05-02T05:32:27;15.40;70.10
39931;DHT22;26635;-35.248;149.138;2023-05-02T05:34:58;15.50;71.10
39931;DHT22;26635;-35.248;149.138;2023-05-02T05:37:30;15.50;71.20
39931;DHT22;26635;-35.248;149.138;2023-05-02T05:40:01;15.40;71.10
39931;DHT22;26635;-35.248;149.138;2023-05-02T05:42:32;15.40;71.70
39931;DHT22;26635;-35.248;149.138;2023-05-02T05:45:03;15.40;71.80
39931;DHT22;26635;-35.248;149.138;2023-05-02T05:47:34;15.30;71.80
39931;DHT22;26635;-35.248;149.138;2023-05-02T05:50:06;15.20;71.60
39931;DHT22;26635;-35.248;149.138;2023-05-02T05:52:37;15.20;71.50
39931;DHT22;26635;-35.248;149.138;2023-05-02T05:55:10;15.10;73.30
39931;DHT22;26635;-35.248;149.138;2023-05-02T05:57:42;15.10;73.70
39931;DHT22;26635;-35.248;149.138;2023-05-02T06:00:13;15.00;72.90
39931;DHT22;26635;-35.248;149.138;2023-05-02T06:02:43;14.90;71.60
39931;DHT22;26635;-35.248;149.138;2023-05-02T06:05:14;14.90;71.80
39931;DHT22;26635;-35.248;149.138;2023-05-02T06:07:45;14.80;72.00
39931;DHT22;26635;-35.248;149.138;2023-05-02T06:10:16;14.70;74.10
39931;DHT22;26635;-35.248;149.138;2023-05-02T06:12:47;14.70;73.90
39931;DHT22;26635;-35.248;149.138;2023-05-02T06:15:17;14.60;73.20
39931;DHT22;26635;-35.248;149.138;2023-05-02T06:17:50;14.60;75.00
39931;DHT22;26635;-35.248;149.138;2023-05-02T06:20:21;14.40;72.80
39931;DHT22;26635;-35.248;149.138;2023-05-02T06:22:52;14.40;73.40
39931;DHT22;26635;-35.248;149.138;2023-05-02T06:25:22;14.30;73.50
39931;DHT22;26635;-35.248;149.138;2023-05-02T06:27:53;14.30;74.60
39931;DHT22;26635;-35.248;149.138;2023-05-02T06:30:24;14.20;75.70
39931;DHT22;26635;-35.248;149.138;2023-05-02T06:32:55;14.10;75.50
39931;DHT22;26635;-35.248;149.138;2023-05-02T06:35:26;14.00;72.50
39931;DHT22;26635;-35.248;149.138;2023-05-02T06:37:58;14.00;74.20
39931;DHT22;26635;-35.248;149.138;2023-05-02T06:40:28;13.90;75.60
39931;DHT22;26635;-35.248;149.138;2023-05-02T06:42:59;13.90;74.00
39931;DHT22;26635;-35.248;149.138;2023-05-02T06:45:31;13.90;74.40
39931;DHT22;26635;-35.248;149.138;2023-05-02T06:48:03;13.90;74.40
39931;DHT22;26635;-35.248;149.138;2023-05-02T06:50:34;13.90;75.20
39931;DHT22;26635;-35.248;149.138;2023-05-02T06:53:05;13.80;75.10
39931;DHT22;26635;-35.248;149.138;2023-05-02T06:55:36;13.70;73.90
39931;DHT22;26635;-35.248;149.138;2023-05-02T06:58:09;13.70;75.10
39931;DHT22;26635;-35.248;149.138;2023-05-02T07:00:39;13.70;74.80
39931;DHT22;26635;-35.248;149.138;2023-05-02T07:03:11;13.60;74.80
39931;DHT22;26635;-35.248;149.138;2023-05-02T07:05:43;13.60;75.90
39931;DHT22;26635;-35.248;149.138;2023-05-02T07:08:13;13.50;75.90
39931;DHT22;26635;-35.248;149.138;2023-05-02T07:10:47;13.50;75.30
39931;DHT22;26635;-35.248;149.138;2023-05-02T07:13:19;13.40;76.40
39931;DHT22;26635;-35.248;149.138;2023-05-02T07:15:52;13.30;76.00
39931;DHT22;26635;-35.248;149.138;2023-05-02T07:18:23;13.20;77.80
39931;DHT22;26635;-35.248;149.138;2023-05-02T07:20:54;13.20;77.90
39931;DHT22;26635;-35.248;149.138;2023-05-02T07:23:25;13.10;79.20
39931;DHT22;26635;-35.248;149.138;2023-05-02T07:25:57;13.00;80.40
39931;DHT22;26635;-35.248;149.138;2023-05-02T07:28:30;13.00;81.20
39931;DHT22;26635;-35.248;149.138;2023-05-02T07:31:01;12.90;81.20
39931;DHT22;26635;-35.248;149.138;2023-05-02T07:33:32;12.90;81.70
39931;DHT22;26635;-35.248;149.138;2023-05-02T07:36:03;12.80;82.60
39931;DHT22;26635;-35.248;149.138;2023-05-02T07:38:34;12.80;83.20
39931;DHT22;26635;-35.248;149.138;2023-05-02T07:41:05;12.80;81.70
39931;DHT22;26635;-35.248;149.138;2023-05-02T07:43:35;12.80;81.70
39931;DHT22;26635;-35.248;149.138;2023-05-02T07:46:06;12.80;81.10
39931;DHT22;26635;-35.248;149.138;2023-05-02T07:48:39;12.90;80.50
39931;DHT22;26635;-35.248;149.138;2023-05-02T07:51:13;12.90;79.70
39931;DHT22;26635;-35.248;149.138;2023-05-02T07:53:44;12.90;80.30
39931;DHT22;26635;-35.248;149.138;2023-05-02T07:56:16;12.90;80.90
39931;DHT22;26635;-35.248;149.138;2023-05-02T07:58:47;12.80;80.70
39931;DHT22;26635;-35.248;149.138;2023-05-02T08:01:18;12.80;81.20
39931;DHT22;26635;-35.248;149.138;2023-05-02T08:03:49;12.70;82.40
39931;DHT22;26635;-35.248;149.138;2023-05-02T08:06:21;12.60;84.30
39931;DHT22;26635;-35.248;149.138;2023-05-02T08:08:53;12.60;84.00
39931;DHT22;26635;-35.248;149.138;2023-05-02T08:11:24;12.50;81.60
39931;DHT22;26635;-35.248;149.138;2023-05-02T08:13:56;12.40;82.40
39931;DHT22;26635;-35.248;149.138;2023-05-02T08:16:28;12.40;83.90
39931;DHT22;26635;-35.248;149.138;2023-05-02T08:18:59;12.30;84.60
39931;DHT22;26635;-35.248;149.138;2023-05-02T08:21:30;12.20;83.90
39931;DHT22;26635;-35.248;149.138;2023-05-02T08:24:01;12.20;83.80
39931;DHT22;26635;-35.248;149.138;2023-05-02T08:26:32;12.10;83.70
39931;DHT22;26635;-35.248;149.138;2023-05-02T08:29:03;12.10;83.00
39931;DHT22;26635;-35.248;149.138;2023-05-02T08:31:38;12.00;82.80
39931;DHT22;26635;-35.248;149.138;2023-05-02T08:34:08;12.00;83.00
39931;DHT22;26635;-35.248;149.138;2023-05-02T08:36:39;11.90;83.40
39931;DHT22;26635;-35.248;149.138;2023-05-02T08:39:10;11.90;83.90
39931;DHT22;26635;-35.248;149.138;2023-05-02T08:41:42;11.80;84.50
39931;DHT22;26635;-35.248;149.138;2023-05-02T08:44:15;11.70;84.40
39931;DHT22;26635;-35.248;149.138;2023-05-02T08:46:48;11.70;84.50
39931;DHT22;26635;-35.248;149.138;2023-05-02T08:49:20;11.60;85.40
39931;DHT22;26635;-35.248;149.138;2023-05-02T08:51:53;11.50;86.20
39931;DHT22;26635;-35.248;149.138;2023-05-02T08:54:25;11.40;85.50
39931;DHT22;26635;-35.248;149.138;2023-05-02T08:57:03;11.30;85.40
39931;DHT22;26635;-35.248;149.138;2023-05-02T08:59:35;11.20;87.10
39931;DHT22;26635;-35.248;149.138;2023-05-02T09:02:24;11.00;88.10
39931;DHT22;26635;-35.248;149.138;2023-05-02T09:05:02;10.90;88.70
39931;DHT22;26635;-35.248;149.138;2023-05-02T09:07:53;10.90;88.70
39931;DHT22;26635;-35.248;149.138;2023-05-02T09:10:25;10.80;88.60
39931;DHT22;26635;-35.248;149.138;2023-05-02T09:16:07;10.70;88.80
39931;DHT22;26635;-35.248;149.138;2023-05-02T09:18:45;10.60;89.60
39931;DHT22;26635;-35.248;149.138;2023-05-02T09:21:17;10.50;89.80
39931;DHT22;26635;-35.248;149.138;2023-05-02T09:23:50;10.50;90.40
39931;DHT22;26635;-35.248;149.138;2023-05-02T09:26:31;10.40;90.90
39931;DHT22;26635;-35.248;149.138;2023-05-02T09:29:03;10.40;90.70
39931;DHT22;26635;-35.248;149.138;2023-05-02T09:31:35;10.30;91.10
39931;DHT22;26635;-35.248;149.138;2023-05-02T09:34:12;10.30;90.80
39931;DHT22;26635;-35.248;149.138;2023-05-02T09:36:44;10.30;91.40
39931;DHT22;26635;-35.248;149.138;2023-05-02T09:39:22;10.30;91.20
39931;DHT22;26635;-35.248;149.138;2023-05-02T09:41:54;10.20;91.40
39931;DHT22;26635;-35.248;149.138;2023-05-02T09:44:27;10.20;91.60
39931;DHT22;26635;-35.248;149.138;2023-05-02T09:47:07;10.20;91.40
39931;DHT22;26635;-35.248;149.138;2023-05-02T09:49:43;10.20;91.40
39931;DHT22;26635;-35.248;149.138;2023-05-02T09:52:17;10.20;92.00
39931;DHT22;26635;-35.248;149.138;2023-05-02T09:54:49;10.10;92.30
39931;DHT22;26635;-35.248;149.138;2023-05-02T09:57:48;10.10;91.80
39931;DHT22;26635;-35.248;149.138;2023-05-02T10:00:19;10.00;91.60
39931;DHT22;26635;-35.248;149.138;2023-05-02T10:02:50;10.10;91.50
39931;DHT22;26635;-35.248;149.138;2023-05-02T10:05:21;10.00;91.60
39931;DHT22;26635;-35.248;149.138;2023-05-02T10:07:52;10.00;92.00
39931;DHT22;26635;-35.248;149.138;2023-05-02T10:10:23;9.90;92.50
39931;DHT22;26635;-35.248;149.138;2023-05-02T10:12:54;9.90;91.90
39931;DHT22;26635;-35.248;149.138;2023-05-02T10:15:27;9.90;92.00
39931;DHT22;26635;-35.248;149.138;2023-05-02T10:18:02;9.90;92.00
39931;DHT22;26635;-35.248;149.138;2023-05-02T10:20:35;10.00;92.50
39931;DHT22;26635;-35.248;149.138;2023-05-02T10:23:07;9.90;92.90
39931;DHT22;26635;-35.248;149.138;2023-05-02T10:25:38;10.00;92.90
39931;DHT22;26635;-35.248;149.138;2023-05-02T10:28:12;10.10;92.60
39931;DHT22;26635;-35.248;149.138;2023-05-02T10:30:45;10.10;93.80
39931;DHT22;26635;-35.248;149.138;2023-05-02T10:33:17;10.10;92.80
39931;DHT22;26635;-35.248;149.138;2023-05-02T10:35:50;10.20;92.80
39931;DHT22;26635;-35.248;149.138;2023-05-02T10:38:24;10.20;92.80
39931;DHT22;26635;-35.248;149.138;2023-05-02T10:41:07;10.20;93.20
39931;DHT22;26635;-35.248;149.138;2023-05-02T10:43:44;10.30;92.70
39931;DHT22;26635;-35.248;149.138;2023-05-02T10:46:35;10.40;92.40
39931;DHT22;26635;-35.248;149.138;2023-05-02T10:49:08;10.40;92.60
39931;DHT22;26635;-35.248;149.138;2023-05-02T10:51:42;10.40;93.00
39931;DHT22;26635;-35.248;149.138;2023-05-02T10:57:02;10.40;93.00
39931;DHT22;26635;-35.248;149.138;2023-05-02T10:59:40;10.40;93.30
39931;DHT22;26635;-35.248;149.138;2023-05-02T11:05:07;10.50;93.50
39931;DHT22;26635;-35.248;149.138;2023-05-02T11:07:39;10.50;93.40
39931;DHT22;26635;-35.248;149.138;2023-05-02T11:10:24;10.60;93.30
39931;DHT22;26635;-35.248;149.138;2023-05-02T11:12:58;10.60;93.20
39931;DHT22;26635;-35.248;149.138;2023-05-02T11:20:47;10.60;93.20
39931;DHT22;26635;-35.248;149.138;2023-05-02T11:23:22;10.70;93.30
39931;DHT22;26635;-35.248;149.138;2023-05-02T11:25:57;10.70;93.20
39931;DHT22;26635;-35.248;149.138;2023-05-02T11:28:40;10.70;93.30
39931;DHT22;26635;-35.248;149.138;2023-05-02T11:34:00;10.70;93.40
39931;DHT22;26635;-35.248;149.138;2023-05-02T11:36:32;10.70;93.30
39931;DHT22;26635;-35.248;149.138;2023-05-02T11:39:17;10.60;93.50
39931;DHT22;26635;-35.248;149.138;2023-05-02T11:41:48;10.60;93.60
39931;DHT22;26635;-35.248;149.138;2023-05-02T11:44:20;10.60;93.50
39931;DHT22;26635;-35.248;149.138;2023-05-02T11:46:52;10.60;93.40
39931;DHT22;26635;-35.248;149.138;2023-05-02T11:49:23;10.60;93.30
39931;DHT22;26635;-35.248;149.138;2023-05-02T11:51:54;10.50;93.50
39931;DHT22;26635;-35.248;149.138;2023-05-02T11:54:25;10.50;93.70
39931;DHT22;26635;-35.248;149.138;2023-05-02T11:56:56;10.40;93.80
39931;DHT22;26635;-35.248;149.138;2023-05-02T11:59:30;10.40;93.90
39931;DHT22;26635;-35.248;149.138;2023-05-02T12:02:17;10.40;94.10
39931;DHT22;26635;-35.248;149.138;2023-05-02T12:04:49;10.40;93.70
39931;DHT22;26635;-35.248;149.138;2023-05-02T12:07:20;10.40;93.40
39931;DHT22;26635;-35.248;149.138;2023-05-02T12:10:04;10.40;93.60
39931;DHT22;26635;-35.248;149.138;2023-05-02T12:12:35;10.30;93.50
39931;DHT22;26635;-35.248;149.138;2023-05-02T12:15:09;10.30;93.30
39931;DHT22;26635;-35.248;149.138;2023-05-02T12:17:42;10.20;93.50
39931;DHT22;26635;-35.248;149.138;2023-05-02T12:20:14;10.20;93.40
39931;DHT22;26635;-35.248;149.138;2023-05-02T12:22:46;10.20;93.40
39931;DHT22;26635;-35.248;149.138;2023-05-02T12:25:17;10.20;93.90
39931;DHT22;26635;-35.248;149.138;2023-05-02T12:28:02;10.20;93.70
39931;DHT22;26635;-35.248;149.138;2023-05-02T12:30:33;10.10;93.70
39931;DHT22;26635;-35.248;149.138;2023-05-02T12:33:05;10.00;93.70
39931;DHT22;26635;-35.248;149.138;2023-05-02T12:35:36;10.00;93.60
39931;DHT22;26635;-35.248;149.138;2023-05-02T12:38:19;10.10;94.00
39931;DHT22;26635;-35.248;149.138;2023-05-02T12:41:00;10.10;94.20
39931;DHT22;26635;-35.248;149.138;2023-05-02T12:43:51;10.10;95.00
39931;DHT22;26635;-35.248;149.138;2023-05-02T12:46:22;10.20;95.20
39931;DHT22;26635;-35.248;149.138;2023-05-02T12:49:06;10.20;96.00
39931;DHT22;26635;-35.248;149.138;2023-05-02T12:51:39;10.20;96.20
39931;DHT22;26635;-35.248;149.138;2023-05-02T12:54:19;10.30;96.00
39931;DHT22;26635;-35.248;149.138;2023-05-02T12:56:51;10.50;95.90
39931;DHT22;26635;-35.248;149.138;2023-05-02T12:59:30;10.50;96.20
39931;DHT22;26635;-35.248;149.138;2023-05-02T13:02:01;10.60;96.10
39931;DHT22;26635;-35.248;149.138;2023-05-02T13:04:37;10.60;96.30
39931;DHT22;26635;-35.248;149.138;2023-05-02T13:07:09;10.70;96.30
39931;DHT22;26635;-35.248;149.138;2023-05-02T13:09:39;10.80;96.00
39931;DHT22;26635;-35.248;149.138;2023-05-02T13:12:11;10.80;96.00
39931;DHT22;26635;-35.248;149.138;2023-05-02T13:14:42;10.80;95.90
39931;DHT22;26635;-35.248;149.138;2023-05-02T13:17:13;10.80;95.70
39931;DHT22;26635;-35.248;149.138;2023-05-02T13:19:44;10.80;95.70
39931;DHT22;26635;-35.248;149.138;2023-05-02T13:22:28;10.80;95.70
39931;DHT22;26635;-35.248;149.138;2023-05-02T13:24:59;10.80;95.60
39931;DHT22;26635;-35.248;149.138;2023-05-02T13:27:29;10.80;95.70
39931;DHT22;26635;-35.248;149.138;2023-05-02T13:30:02;10.80;96.10
39931;DHT22;26635;-35.248;149.138;2023-05-02T13:32:36;10.80;95.70
39931;DHT22;26635;-35.248;149.138;2023-05-02T13:35:07;10.80;95.80
39931;DHT22;26635;-35.248;149.138;2023-05-02T13:37:39;10.80;95.70
39931;DHT22;26635;-35.248;149.138;2023-05-02T13:40:10;10.70;95.50
39931;DHT22;26635;-35.248;149.138;2023-05-02T13:42:41;10.70;95.50
39931;DHT22;26635;-35.248;149.138;2023-05-02T13:45:12;10.70;95.70
39931;DHT22;26635;-35.248;149.138;2023-05-02T13:47:43;10.70;95.50
39931;DHT22;26635;-35.248;149.138;2023-05-02T13:50:13;10.60;95.60
39931;DHT22;26635;-35.248;149.138;2023-05-02T13:52:44;10.60;95.40
39931;DHT22;26635;-35.248;149.138;2023-05-02T13:55:16;10.60;95.70
39931;DHT22;26635;-35.248;149.138;2023-05-02T13:57:47;10.60;96.10
39931;DHT22;26635;-35.248;149.138;2023-05-02T14:00:18;10.70;95.70
39931;DHT22;26635;-35.248;149.138;2023-05-02T14:02:49;10.70;95.60
39931;DHT22;26635;-35.248;149.138;2023-05-02T14:05:20;10.70;96.00
39931;DHT22;26635;-35.248;149.138;2023-05-02T14:07:50;10.70;96.00
39931;DHT22;26635;-35.248;149.138;2023-05-02T14:10:20;10.70;96.00
39931;DHT22;26635;-35.248;149.138;2023-05-02T14:12:51;10.70;95.50
39931;DHT22;26635;-35.248;149.138;2023-05-02T14:15:22;10.70;95.70
39931;DHT22;26635;-35.248;149.138;2023-05-02T14:17:52;10.70;95.80
39931;DHT22;26635;-35.248;149.138;2023-05-02T14:20:23;10.70;95.90
39931;DHT22;26635;-35.248;149.138;2023-05-02T14:22:53;10.80;95.70
39931;DHT22;26635;-35.248;149.138;2023-05-02T14:25:23;10.80;95.50
39931;DHT22;26635;-35.248;149.138;2023-05-02T14:27:54;10.80;95.40
39931;DHT22;26635;-35.248;149.138;2023-05-02T14:30:26;10.80;95.40
39931;DHT22;26635;-35.248;149.138;2023-05-02T14:32:57;10.80;95.40
39931;DHT22;26635;-35.248;149.138;2023-05-02T14:35:27;10.80;95.50
39931;DHT22;26635;-35.248;149.138;2023-05-02T14:37:57;10.80;95.60
39931;DHT22;26635;-35.248;149.138;2023-05-02T14:40:28;10.80;95.70
39931;DHT22;26635;-35.248;149.138;2023-05-02T14:42:58;10.90;95.60
39931;DHT22;26635;-35.248;149.138;2023-05-02T14:45:29;10.80;95.30
39931;DHT22;26635;-35.248;149.138;2023-05-02T14:48:00;10.90;95.50
39931;DHT22;26635;-35.248;149.138;2023-05-02T14:50:30;10.90;95.50
39931;DHT22;26635;-35.248;149.138;2023-05-02T14:53:04;10.90;95.70
39931;DHT22;26635;-35.248;149.138;2023-05-02T14:55:41;10.90;95.80
39931;DHT22;26635;-35.248;149.138;2023-05-02T14:58:11;11.00;96.00
39931;DHT22;26635;-35.248;149.138;2023-05-02T15:00:49;11.00;95.90
39931;DHT22;26635;-35.248;149.138;2023-05-02T15:03:20;11.10;96.20
39931;DHT22;26635;-35.248;149.138;2023-05-02T15:05:52;11.10;96.20
39931;DHT22;26635;-35.248;149.138;2023-05-02T15:08:22;11.10;96.00
39931;DHT22;26635;-35.248;149.138;2023-05-02T15:10:53;11.20;95.80
39931;DHT22;26635;-35.248;149.138;2023-05-02T15:13:25;11.20;95.80
39931;DHT22;26635;-35.248;149.138;2023-05-02T15:15:56;11.20;95.60
39931;DHT22;26635;-35.248;149.138;2023-05-02T15:18:27;11.20;95.20
39931;DHT22;26635;-35.248;149.138;2023-05-02T15:20:58;11.30;95.00
39931;DHT22;26635;-35.248;149.138;2023-05-02T15:23:29;11.20;95.00
39931;DHT22;26635;-35.248;149.138;2023-05-02T15:26:00;11.20;95.00
39931;DHT22;26635;-35.248;149.138;2023-05-02T15:28:31;11.20;95.00
39931;DHT22;26635;-35.248;149.138;2023-05-02T15:31:02;11.30;95.10
39931;DHT22;26635;-35.248;149.138;2023-05-02T15:33:33;11.30;95.00
39931;DHT22;26635;-35.248;149.138;2023-05-02T15:36:04;11.30;94.70
39931;DHT22;26635;-35.248;149.138;2023-05-02T15:38:35;11.30;94.70
39931;DHT22;26635;-35.248;149.138;2023-05-02T15:41:09;11.20;94.80
39931;DHT22;26635;-35.248;149.138;2023-05-02T15:43:40;11.20;94.50
39931;DHT22;26635;-35.248;149.138;2023-05-02T15:46:11;11.20;94.60
39931;DHT22;26635;-35.248;149.138;2023-05-02T15:48:42;11.20;94.70
39931;DHT22;26635;-35.248;149.138;2023-05-02T15:51:13;11.10;95.40
39931;DHT22;26635;-35.248;149.138;2023-05-02T15:53:44;11.10;95.10
39931;DHT22;26635;-35.248;149.138;2023-05-02T15:56:18;11.10;95.20
39931;DHT22;26635;-35.248;149.138;2023-05-02T15:58:50;11.20;95.30